Time;durP1;ratioP1;P1;durP2;ratioP2;P2;SDS_P1;SDS_P2;PMS_P1;PMS_P2;Temp;Humidity;BMP_temperature;BMP_pressure;BME280_temperature;BME280_humidity;BME280_pressure;Samples;Min_cycle;Max_cycle;Signal;HPM_P1;HPM_P2
2022/06/17 00:04:38;;;;;;;4.78;3.37;;;;;;;16.15;67.94;100710.68;3381657;83;21595;-79
2022/06/17 00:09:32;;;;;;;3.60;2.65;;;;;;;16.01;68.29;100704.20;3425802;82;21031;-79
2022/06/17 00:14:29;;;;;;;4.87;3.08;;;;;;;15.92;68.62;100708.19;3384867;83;20946;-79
2022/06/17 00:19:21;;;;;;;4.92;3.00;;;;;;;15.78;68.70;100708.25;3311462;83;21023;-79
2022/06/17 00:24:23;;;;;;;4.62;3.27;;;;;;;15.56;68.81;100711.37;3352613;83;21497;-79
2022/06/17 00:29:20;;;;;;;3.67;3.20;;;;;;;15.41;69.30;100709.66;3346830;83;21030;-79
2022/06/17 00:34:11;;;;;;;3.60;3.30;;;;;;;15.34;69.47;100706.62;3360365;82;21235;-79
2022/06/17 00:39:07;;;;;;;5.42;3.30;;;;;;;15.17;69.46;100697.50;3344616;82;22512;-79
2022/06/17 00:44:03;;;;;;;3.87;2.90;;;;;;;15.10;69.67;100698.39;3368840;83;20921;-79
2022/06/17 00:49:15;;;;;;;3.17;2.87;;;;;;;14.98;69.69;100707.13;3380831;83;20945;-79
2022/06/17 00:54:27;;;;;;;3.20;2.90;;;;;;;14.85;69.61;100706.72;3385377;83;20980;-79
2022/06/17 00:59:18;;;;;;;3.67;2.83;;;;;;;14.72;70.04;100708.48;3386129;83;20968;-79
2022/06/17 01:04:11;;;;;;;3.40;3.20;;;;;;;14.63;69.85;100701.50;3391278;83;21195;-79
2022/06/17 01:10:17;;;;;;;2.90;2.60;;;;;;;14.48;69.99;100698.38;3362346;83;21078;-79
2022/06/17 01:14:21;;;;;;;3.67;3.12;;;;;;;14.39;69.85;100695.77;3399661;82;20889;-79
2022/06/17 01:19:36;;;;;;;3.75;3.45;;;;;;;14.30;70.23;100708.84;3384616;83;21011;-79
2022/06/17 01:24:30;;;;;;;3.20;3.00;;;;;;;14.24;70.46;100711.45;3387751;83;20956;-79
2022/06/17 01:29:21;;;;;;;3.17;2.87;;;;;;;14.18;70.75;100714.05;3352655;83;21238;-79
2022/06/17 01:34:13;;;;;;;3.58;3.27;;;;;;;14.11;70.40;100710.53;3388812;83;20951;-79
2022/06/17 01:39:05;;;;;;;4.00;3.40;;;;;;;14.01;70.66;100720.55;3304206;83;20984;-79
2022/06/17 01:44:06;;;;;;;3.83;3.33;;;;;;;13.96;70.80;100716.60;3338306;83;21007;-79
2022/06/17 01:49:12;;;;;;;3.47;3.05;;;;;;;13.88;70.71;100726.17;3366199;82;20932;-79
2022/06/17 01:54:08;;;;;;;2.87;2.67;;;;;;;13.82;70.77;100733.98;3417404;82;21132;-79
2022/06/17 01:59:11;;;;;;;3.50;3.10;;;;;;;13.71;70.73;100738.72;3431910;82;20968;-79
2022/06/17 02:04:10;;;;;;;3.83;3.52;;;;;;;13.57;70.60;100741.70;3368673;82;21466;-79
2022/06/17 02:09:02;;;;;;;3.85;3.40;;;;;;;13.47;70.62;100760.82;3429333;82;20965;-78
2022/06/17 02:13:55;;;;;;;3.00;2.70;;;;;;;13.31;70.88;100765.94;3361209;83;20975;-78
2022/06/17 02:18:50;;;;;;;3.33;3.08;;;;;;;13.28;71.09;100764.57;3382699;82;21524;-79
2022/06/17 02:23:41;;;;;;;3.25;2.95;;;;;;;13.26;71.06;100765.00;3434421;82;20958;-78
2022/06/17 02:28:35;;;;;;;3.42;3.12;;;;;;;13.23;71.18;100766.27;3393117;83;21023;-78
2022/06/17 02:33:29;;;;;;;4.25;3.00;;;;;;;13.16;71.26;100765.78;3405505;82;20977;-79
2022/06/17 02:38:25;;;;;;;4.62;2.95;;;;;;;13.13;71.35;100772.31;3342589;83;20932;-79
2022/06/17 02:43:25;;;;;;;5.03;3.30;;;;;;;13.06;71.04;100783.58;3435588;82;25881;-79
2022/06/17 02:48:28;;;;;;;3.15;2.95;;;;;;;12.99;71.60;100793.52;3408662;83;20988;-79
2022/06/17 02:53:28;;;;;;;4.78;3.75;;;;;;;12.97;71.45;100789.15;3421841;83;22090;-79
2022/06/17 02:58:36;;;;;;;3.77;3.47;;;;;;;12.91;71.61;100785.20;3419252;83;20937;-79
2022/06/17 03:03:30;;;;;;;3.92;3.62;;;;;;;12.95;71.99;100793.92;3419032;83;21523;-79
2022/06/17 03:08:28;;;;;;;4.12;3.72;;;;;;;13.01;71.76;100798.31;3424843;81;21443;-79
2022/06/17 03:13:37;;;;;;;4.00;3.60;;;;;;;13.25;71.83;100802.44;3408388;82;21056;-79
2022/06/17 03:18:29;;;;;;;3.25;2.95;;;;;;;13.75;71.41;100813.21;3441903;80;21066;-79
2022/06/17 03:23:26;;;;;;;3.10;2.80;;;;;;;13.94;71.17;100817.67;3437382;82;20979;-79
2022/06/17 03:28:26;;;;;;;3.95;2.98;;;;;;;15.87;69.69;100818.76;3429604;82;20944;-79
2022/06/17 03:33:34;;;;;;;2.72;2.52;;;;;;;17.55;66.80;100826.02;3439031;82;21166;-80
2022/06/17 03:38:46;;;;;;;4.83;3.17;;;;;;;18.71;64.21;100824.14;3435127;82;21039;-81
2022/06/17 03:43:49;;;;;;;5.05;3.00;;;;;;;19.24;62.52;100827.72;3437982;82;21024;-80
2022/06/17 03:49:09;;;;;;;4.08;2.80;;;;;;;18.98;61.32;100831.66;3459208;82;21003;-80
2022/06/17 03:54:01;;;;;;;3.52;2.25;;;;;;;17.83;61.21;100831.41;3329305;84;21576;-80
2022/06/17 03:58:54;;;;;;;2.35;2.15;;;;;;;16.74;61.91;100831.89;3319572;84;22258;-80
2022/06/17 04:03:52;;;;;;;2.30;2.10;;;;;;;16.04;63.05;100836.17;3319093;84;21044;-80
2022/06/17 04:09:00;;;;;;;3.33;2.02;;;;;;;15.50;63.69;100838.45;3321219;84;20987;-79
2022/06/17 04:13:56;;;;;;;2.80;1.70;;;;;;;15.15;64.31;100838.06;3280225;85;21041;-79
2022/06/17 04:18:48;;;;;;;2.65;1.62;;;;;;;14.83;64.63;100846.75;3253118;84;21107;-79
2022/06/17 04:23:40;;;;;;;4.08;1.95;;;;;;;14.69;65.27;100849.78;3251772;86;21101;-79
2022/06/17 04:29:00;;;;;;;2.52;2.05;;;;;;;14.60;66.04;100848.45;3348269;82;20976;-79
2022/06/17 04:34:04;;;;;;;3.77;1.98;;;;;;;14.54;65.95;100853.63;3441332;82;20944;-80
2022/06/17 04:39:07;;;;;;;2.12;1.60;;;;;;;14.52;66.49;100859.29;3450715;82;20936;-80
2022/06/17 04:44:05;;;;;;;;;;;;;;;14.50;66.37;100860.59;3468463;80;20959;-80
2022/06/17 04:48:57;;;;;;;3.62;2.15;;;;;;;14.52;66.77;100860.59;3428850;82;21212;-80
2022/06/17 04:53:49;;;;;;;2.35;1.90;;;;;;;14.54;66.44;100870.22;3430748;82;21430;-80
2022/06/17 04:58:51;;;;;;;2.70;1.45;;;;;;;14.59;66.47;100876.78;3206737;86;20989;-80
2022/06/17 05:03:42;;;;;;;3.72;1.67;;;;;;;14.64;66.37;100873.75;3203727;87;21017;-80
2022/06/17 05:08:40;;;;;;;4.05;1.50;;;;;;;14.70;66.62;100878.98;3204708;87;21507;-80
2022/06/17 05:13:39;;;;;;;1.95;1.35;;;;;;;14.80;66.50;100872.91;3122480;89;21195;-80
2022/06/17 05:18:30;;;;;;;2.00;1.77;;;;;;;14.97;66.46;100874.69;3221191;86;21579;-79
2022/06/17 05:23:25;;;;;;;1.40;1.22;;;;;;;15.17;66.16;100877.34;3140031;88;20994;-79
2022/06/17 05:28:20;;;;;;;2.47;1.85;;;;;;;15.57;65.62;100875.57;3122195;89;21022;-79
2022/06/17 05:33:15;;;;;;;1.60;1.27;;;;;;;15.87;65.13;100871.64;3223982;83;20967;-80
2022/06/17 05:38:06;;;;;;;1.37;1.15;;;;;;;16.00;64.61;100868.09;3395874;83;21156;-80
2022/06/17 05:42:58;;;;;;;2.00;1.30;;;;;;;17.09;62.98;100869.32;3376222;83;21525;-80
2022/06/17 05:47:50;;;;;;;1.67;1.30;;;;;;;17.36;62.38;100877.87;3321215;83;20948;-81
2022/06/17 05:53:05;;;;;;;4.53;1.50;;;;;;;17.26;62.21;100883.63;3333339;83;20965;-80
2022/06/17 05:58:01;;;;;;;2.75;1.98;;;;;;;17.57;61.52;100892.59;3382650;83;21476;-80
2022/06/17 06:02:59;;;;;;;2.20;1.30;;;;;;;17.57;61.85;100893.90;3367848;82;21172;-79
2022/06/17 06:07:53;;;;;;;7.20;2.17;;;;;;;17.28;61.64;100895.02;3381440;83;20982;-80
2022/06/17 06:12:53;;;;;;;4.45;2.20;;;;;;;17.14;61.73;100895.98;3317370;85;20932;-79
2022/06/17 06:17:47;;;;;;;2.62;1.35;;;;;;;17.17;61.16;100891.58;3364959;83;21019;-80
2022/06/17 06:22:38;;;;;;;1.98;1.50;;;;;;;17.27;61.29;100893.27;3377142;83;20999;-79
2022/06/17 06:27:31;;;;;;;3.90;1.20;;;;;;;17.30;60.64;100899.82;3401710;83;21131;-79
2022/06/17 06:32:23;;;;;;;3.17;1.45;;;;;;;17.49;59.85;100893.95;3321192;84;21019;-80
2022/06/17 06:37:16;;;;;;;3.83;1.12;;;;;;;17.56;59.87;100889.06;3402176;83;21039;-79
2022/06/17 06:42:08;;;;;;;2.05;1.60;;;;;;;17.74;59.49;100880.13;3333983;82;20987;-80
2022/06/17 06:47:01;;;;;;;1.85;1.00;;;;;;;18.09;58.89;100892.08;3405381;83;21015;-80
2022/06/17 06:51:55;;;;;;;2.10;1.10;;;;;;;18.12;58.71;100888.11;3378065;83;21014;-79
2022/06/17 06:56:46;;;;;;;2.77;1.22;;;;;;;18.45;57.11;100884.63;3364317;83;20991;-80
2022/06/17 07:01:38;;;;;;;1.85;1.30;;;;;;;18.64;56.59;100884.81;3392077;83;20976;-79
2022/06/17 07:06:29;;;;;;;1.70;1.00;;;;;;;18.81;55.55;100886.33;3360923;83;21572;-80
2022/06/17 07:11:21;;;;;;;1.85;1.05;;;;;;;18.90;56.12;100881.41;3433231;82;20982;-80
2022/06/17 07:16:14;;;;;;;1.57;1.00;;;;;;;19.01;55.08;100883.00;3364433;83;21450;-80
2022/06/17 07:21:09;;;;;;;2.33;1.20;;;;;;;19.17;55.09;100880.11;3280805;83;20971;-80
2022/06/17 07:26:11;;;;;;;2.67;1.52;;;;;;;20.16;53.08;100869.56;3395160;82;20948;-81
2022/06/17 07:31:03;;;;;;;1.45;1.35;;;;;;;22.64;49.80;100870.41;3381924;83;20967;-79
2022/06/17 07:35:57;;;;;;;2.20;1.57;;;;;;;27.10;45.11;100862.95;3357081;82;21506;-80
2022/06/17 07:40:49;;;;;;;1.82;1.72;;;;;;;30.56;40.88;100874.63;3346090;83;21466;-80
2022/06/17 07:45:40;;;;;;;1.40;1.30;;;;;;;32.93;37.54;100867.69;3353098;83;21043;-81
2022/06/17 07:50:33;;;;;;;1.62;1.25;;;;;;;33.99;34.08;100870.84;3370660;82;20942;-81
2022/06/17 07:55:25;;;;;;;1.95;1.50;;;;;;;34.79;33.40;100871.16;3436868;82;27111;-81
2022/06/17 08:00:21;;;;;;;1.50;1.25;;;;;;;35.97;31.85;100877.81;3397031;82;22258;-81
2022/06/17 08:05:13;;;;;;;1.80;1.47;;;;;;;34.82;31.95;100873.59;3437427;82;21236;-80
2022/06/17 08:10:05;;;;;;;3.22;1.20;;;;;;;31.61;33.82;100885.20;3455726;81;20994;-80
2022/06/17 08:14:56;;;;;;;1.25;1.15;;;;;;;29.48;35.84;100870.55;3524295;81;21465;-79
2022/06/17 08:19:51;;;;;;;2.83;2.37;;;;;;;28.31;36.53;100877.16;3450657;81;21026;-81
2022/06/17 08:24:41;;;;;;;1.90;1.30;;;;;;;30.86;34.47;100878.97;3478924;81;21025;-81
2022/06/17 08:29:32;;;;;;;1.57;1.30;;;;;;;33.61;31.00;100876.89;3449150;82;21122;-81
2022/06/17 08:34:23;;;;;;;1.37;1.27;;;;;;;34.72;29.78;100872.66;3411699;80;21018;-81
2022/06/17 08:39:15;;;;;;;2.15;1.25;;;;;;;35.53;29.33;100873.05;3524695;81;20955;-81
2022/06/17 08:44:28;;;;;;;2.10;1.37;;;;;;;36.62;27.70;100876.12;3447621;81;20962;-81
2022/06/17 08:49:25;;;;;;;1.37;1.27;;;;;;;34.34;28.90;100886.92;3527822;81;20935;-81
2022/06/17 08:54:52;;;;;;;2.15;1.60;;;;;;;35.82;28.12;100888.62;3456170;81;40362;-81
2022/06/17 09:00:05;;;;;;;2.55;1.70;;;;;;;34.43;28.77;100897.47;3487666;81;20966;-81
2022/06/17 09:05:20;;;;;;;1.72;1.15;;;;;;;34.80;28.45;100890.41;3429447;82;20915;-80
2022/06/17 09:10:20;;;;;;;;;;;;;;;34.35;28.89;100891.83;3482426;81;21498;-80
2022/06/17 09:15:40;;;;;;;2.80;1.52;;;;;;;32.55;29.54;100894.21;3426735;80;20098;-80
2022/06/17 09:20:42;;;;;;;1.40;1.25;;;;;;;29.79;31.79;100901.72;3392984;84;21192;-80
2022/06/17 09:25:38;;;;;;;1.60;1.40;;;;;;;29.22;32.81;100899.71;3360742;82;20971;-79
2022/06/17 09:30:34;;;;;;;4.22;1.50;;;;;;;29.39;32.53;100904.58;3406844;83;21003;-79
2022/06/17 09:35:45;;;;;;;1.82;1.30;;;;;;;28.07;34.20;100908.28;3448528;82;20944;-79
2022/06/17 09:40:57;;;;;;;2.15;1.80;;;;;;;27.45;35.52;100935.08;3416978;83;20965;-79
2022/06/17 09:46:00;;;;;;;2.02;1.55;;;;;;;27.26;35.69;100924.41;3422055;83;21208;-80
2022/06/17 09:50:56;;;;;;;3.30;1.85;;;;;;;30.82;33.14;100915.00;3391341;83;20960;-78
2022/06/17 09:55:59;;;;;;;1.92;1.52;;;;;;;32.40;30.73;100919.56;3433094;82;20961;-78
2022/06/17 10:00:55;;;;;;;2.08;1.40;;;;;;;32.27;31.55;100920.44;3434789;82;20973;-78
2022/06/17 10:06:25;;;;;;;1.40;1.30;;;;;;;30.67;31.47;100932.97;3373885;83;21554;-78
2022/06/17 10:11:34;;;;;;;2.50;1.35;;;;;;;28.25;33.76;100941.19;3344795;83;20968;-78
2022/06/17 10:22:22;;;;;;;2.60;1.42;;;;;;;27.22;34.82;100947.72;3301525;85;20999;-77
2022/06/17 10:27:40;;;;;;;2.33;1.35;;;;;;;25.68;36.27;100946.68;3221997;86;21007;-77
2022/06/17 10:32:36;;;;;;;1.77;1.50;;;;;;;24.79;37.79;100947.59;3148045;89;21527;-77
2022/06/17 10:37:31;;;;;;;2.17;1.25;;;;;;;28.08;36.07;100932.74;3110887;90;21059;-77
2022/06/17 10:42:24;;;;;;;2.17;1.60;;;;;;;30.03;34.50;100926.17;3085056;90;21006;-78
2022/06/17 10:48:00;;;;;;;1.45;1.35;;;;;;;27.88;34.78;100936.88;3085160;89;21029;-78
2022/06/17 10:53:12;;;;;;;1.32;1.22;;;;;;;30.36;33.36;100929.07;3173739;88;20992;-78
2022/06/17 10:58:16;;;;;;;2.35;1.72;;;;;;;30.58;32.49;100932.62;3198110;88;20992;-77
2022/06/17 11:03:25;;;;;;;3.25;2.95;;;;;;;28.96;33.67;100935.14;3172277;88;21061;-77
2022/06/17 11:08:28;;;;;;;1.50;1.30;;;;;;;27.98;34.83;100934.65;3285503;83;20929;-77
2022/06/17 11:13:20;;;;;;;2.20;1.40;;;;;;;28.18;35.85;100921.55;3367290;83;20968;-77
2022/06/17 11:18:25;;;;;;;2.45;1.40;;;;;;;28.33;36.04;100912.23;3395771;82;21504;-78
2022/06/17 11:23:31;;;;;;;3.27;1.53;;;;;;;28.20;35.60;100911.64;3380720;83;21596;-78
2022/06/17 11:28:28;;;;;;;2.87;1.47;;;;;;;27.22;35.66;100931.70;3377877;83;22696;-77
2022/06/17 11:33:30;;;;;;;1.85;1.60;;;;;;;26.14;36.53;100939.39;3359873;84;20995;-77
2022/06/17 11:38:23;;;;;;;2.60;1.65;;;;;;;25.80;36.75;100938.17;3407392;83;21402;-77
2022/06/17 11:43:32;;;;;;;2.25;1.72;;;;;;;25.99;37.90;100927.63;3309340;85;20980;-77
2022/06/17 11:48:23;;;;;;;5.35;1.40;;;;;;;25.72;38.65;100932.33;3366894;83;21078;-78
2022/06/17 11:53:17;;;;;;;2.58;1.22;;;;;;;26.46;38.79;100936.22;3362585;83;21144;-78
2022/06/17 11:58:11;;;;;;;1.60;1.20;;;;;;;25.86;37.49;100932.59;3375068;83;21021;-77
2022/06/17 12:03:02;;;;;;;2.40;1.35;;;;;;;24.99;38.23;100942.85;3325042;83;20995;-76
2022/06/17 12:08:11;;;;;;;2.15;1.60;;;;;;;24.41;38.98;100942.77;3328224;81;21521;-77
2022/06/17 12:13:14;;;;;;;3.20;1.40;;;;;;;24.07;39.72;100952.44;3382801;83;21178;-78
2022/06/17 12:18:14;;;;;;;1.77;1.55;;;;;;;25.34;41.14;100945.42;3408073;83;22179;-78
2022/06/17 12:23:10;;;;;;;1.95;1.30;;;;;;;25.06;39.85;100947.00;3419142;81;21002;-78
2022/06/17 12:28:36;;;;;;;2.45;1.50;;;;;;;24.70;40.79;100949.70;3402191;83;20964;-78
2022/06/17 12:33:41;;;;;;;2.58;1.40;;;;;;;25.20;40.39;100944.65;3393630;83;20927;-78
2022/06/17 12:38:52;;;;;;;2.60;1.52;;;;;;;25.47;39.54;100945.34;3362580;83;21034;-78
2022/06/17 12:44:14;;;;;;;1.65;1.50;;;;;;;26.32;40.24;100928.84;3336125;84;21557;-78
2022/06/17 12:54:46;;;;;;;1.75;1.17;;;;;;;27.26;38.56;100933.30;3340076;84;21071;-78
2022/06/17 12:59:59;;;;;;;2.70;1.17;;;;;;;27.61;38.16;100939.18;3327816;84;20976;-78
2022/06/17 13:05:17;;;;;;;1.65;1.40;;;;;;;27.31;37.02;100937.98;3316438;85;20985;-78
2022/06/17 13:10:42;;;;;;;1.37;1.10;;;;;;;26.72;38.22;100924.34;3309965;84;21120;-78
2022/06/17 13:15:39;;;;;;;1.55;1.45;;;;;;;26.75;38.10;100920.21;3312568;84;20983;-79
2022/06/17 13:20:45;;;;;;;1.40;1.17;;;;;;;26.64;37.92;100923.38;3369620;83;20986;-78
2022/06/17 13:25:57;;;;;;;2.50;1.20;;;;;;;26.20;37.43;100932.91;3476493;81;20963;-79
2022/06/17 13:30:56;;;;;;;2.95;1.40;;;;;;;26.36;38.21;100938.42;3467396;81;21041;-79
2022/06/17 13:35:55;;;;;;;2.35;1.57;;;;;;;26.81;37.79;100931.46;3443221;80;20982;-78
2022/06/17 13:40:58;;;;;;;1.57;1.47;;;;;;;27.07;38.23;100921.80;3503379;80;21054;-79
2022/06/17 13:45:56;;;;;;;1.30;1.20;;;;;;;27.05;37.59;100929.02;3461838;81;21565;-79
2022/06/17 13:51:18;;;;;;;1.87;1.32;;;;;;;26.90;37.25;100933.27;3442025;81;20964;-78
2022/06/17 13:56:53;;;;;;;1.67;1.20;;;;;;;26.79;37.81;100928.01;3470984;80;20963;-78
2022/06/17 14:01:46;;;;;;;1.50;1.25;;;;;;;26.97;37.52;100932.92;3454547;80;21599;-78
2022/06/17 14:06:57;;;;;;;1.42;1.10;;;;;;;26.96;37.08;100921.84;3421156;81;21671;-78
2022/06/17 14:11:49;;;;;;;1.87;0.88;;;;;;;26.90;35.92;100924.83;3456425;81;21203;-78
2022/06/17 14:16:42;;;;;;;1.22;1.12;;;;;;;26.93;35.87;100921.98;3443539;82;21507;-78
2022/06/17 14:21:48;;;;;;;0.80;0.80;;;;;;;27.01;36.40;100925.16;3369172;83;21019;-78
2022/06/17 14:26:50;;;;;;;4.40;1.20;;;;;;;27.04;36.24;100916.13;3423709;83;21450;-78
2022/06/17 14:31:48;;;;;;;2.05;1.17;;;;;;;26.84;34.60;100920.24;3394367;82;20984;-78
2022/06/17 14:36:57;;;;;;;1.12;0.95;;;;;;;26.72;34.72;100913.68;3391562;83;20971;-78
2022/06/17 14:42:10;;;;;;;2.05;1.50;;;;;;;26.60;34.99;100909.30;3384086;81;21027;-78
2022/06/17 14:47:28;;;;;;;1.47;1.30;;;;;;;26.61;35.59;100913.74;3364426;83;21319;-79
2022/06/17 14:52:32;;;;;;;1.57;1.02;;;;;;;26.52;35.97;100907.92;3397704;82;21521;-78
2022/06/17 14:57:26;;;;;;;2.05;1.50;;;;;;;26.57;35.23;100902.77;3399509;82;21567;-78
2022/06/17 15:02:26;;;;;;;3.77;1.40;;;;;;;26.53;35.30;100901.19;3384286;83;20970;-78
2022/06/17 15:07:28;;;;;;;2.17;1.57;;;;;;;26.65;35.30;100904.24;3396218;82;21267;-79
2022/06/17 15:12:41;;;;;;;1.30;1.20;;;;;;;26.57;36.00;100904.10;3375022;82;21571;-78
2022/06/17 15:17:41;;;;;;;1.50;1.37;;;;;;;26.50;36.04;100904.47;3460381;80;21510;-78
2022/06/17 15:22:35;;;;;;;1.07;0.98;;;;;;;26.47;35.77;100898.83;3469713;81;21462;-78
2022/06/17 15:27:57;;;;;;;2.75;1.40;;;;;;;26.45;35.65;100906.00;3397950;83;20959;-78
2022/06/17 15:32:53;;;;;;;0.95;0.90;;;;;;;26.40;35.63;100899.58;3458445;80;20931;-78
2022/06/17 15:37:52;;;;;;;3.22;1.37;;;;;;;26.30;35.94;100906.73;3415352;81;21607;-77
2022/06/17 15:42:55;;;;;;;3.08;1.22;;;;;;;26.06;35.71;100902.92;3437773;81;21180;-78
2022/06/17 15:48:08;;;;;;;3.90;2.17;;;;;;;26.00;35.65;100909.83;3435358;81;21001;-78
2022/06/17 15:53:10;;;;;;;1.45;1.25;;;;;;;25.48;35.89;100919.10;3395893;81;20969;-77
2022/06/17 15:58:05;;;;;;;1.70;0.98;;;;;;;24.88;36.63;100922.00;3464755;81;21732;-77
2022/06/17 16:03:08;;;;;;;1.12;1.05;;;;;;;24.36;37.47;100927.48;3451507;81;21468;-77
2022/06/17 16:08:04;;;;;;;2.58;1.12;;;;;;;23.94;38.01;100930.30;3447099;81;21801;-77
2022/06/17 16:13:14;;;;;;;;;;;;;;;23.62;38.81;100938.48;3461808;81;21083;-77
2022/06/17 16:18:30;;;;;;;2.37;1.30;;;;;;;23.33;39.30;100936.34;3415009;82;20462;-77
2022/06/17 16:23:32;;;;;;;4.55;2.15;;;;;;;23.07;40.35;100936.70;3429033;82;20934;-77
2022/06/17 16:28:37;;;;;;;1.50;1.37;;;;;;;22.88;40.67;100948.78;3451842;82;20964;-77
2022/06/17 16:33:33;;;;;;;1.95;1.62;;;;;;;22.64;41.55;100948.58;3468655;81;21572;-77
2022/06/17 16:38:48;;;;;;;1.63;1.27;;;;;;;22.44;41.64;100952.67;3391742;82;20972;-77
2022/06/17 16:48:55;;;;;;;4.45;2.20;;;;;;;23.07;41.59;100952.61;3374227;82;21472;-77
2022/06/17 16:53:47;;;;;;;2.25;1.27;;;;;;;23.39;41.52;100958.67;3425555;82;21005;-77
2022/06/17 16:58:38;;;;;;;2.37;2.10;;;;;;;23.60;41.24;100961.95;3414250;82;20974;-76
2022/06/17 17:03:29;;;;;;;3.65;1.30;;;;;;;23.66;40.61;100963.99;3376675;82;21452;-76
2022/06/17 17:08:21;;;;;;;4.80;2.40;;;;;;;23.43;40.30;100964.31;3417273;82;20973;-77
2022/06/17 17:13:13;;;;;;;1.42;1.30;;;;;;;23.18;40.23;100961.12;3405890;81;21015;-77
2022/06/17 17:18:05;;;;;;;1.20;1.10;;;;;;;22.88;40.25;100963.37;3411796;82;20967;-76
2022/06/17 17:22:57;;;;;;;1.00;1.00;;;;;;;22.55;40.77;100971.38;3375266;83;20985;-76
2022/06/17 17:27:50;;;;;;;2.87;2.22;;;;;;;22.27;41.79;100966.41;3380012;83;21023;-76
2022/06/17 17:32:42;;;;;;;2.90;2.67;;;;;;;22.03;42.17;100970.55;3389862;82;21011;-76
2022/06/17 17:37:34;;;;;;;1.82;1.47;;;;;;;21.85;42.43;100981.16;3378496;82;21035;-76
2022/06/17 17:42:25;;;;;;;1.40;1.30;;;;;;;21.69;42.87;100985.11;3405532;82;20948;-76
2022/06/17 17:47:24;;;;;;;3.22;2.00;;;;;;;21.60;43.46;100986.66;3377402;82;21052;-76
2022/06/17 17:52:13;;;;;;;1.30;1.20;;;;;;;21.57;43.43;100986.30;3390429;82;21453;-77
2022/06/17 17:57:05;;;;;;;3.45;1.40;;;;;;;21.70;43.61;100978.46;3310644;82;20985;-76
2022/06/17 18:01:57;;;;;;;1.52;1.40;;;;;;;21.79;43.24;100983.98;3429754;82;20991;-77
2022/06/17 18:06:49;;;;;;;1.57;1.40;;;;;;;21.81;43.78;100974.69;3381040;82;20996;-76
2022/06/17 18:11:44;;;;;;;2.45;1.47;;;;;;;21.80;44.33;100981.77;3413693;82;21059;-77
2022/06/17 18:16:35;;;;;;;1.62;1.27;;;;;;;21.82;44.64;100983.02;3385480;82;21538;-77
2022/06/17 18:21:27;;;;;;;1.45;1.35;;;;;;;21.74;45.39;100987.66;3369158;82;21033;-77
2022/06/17 18:26:21;;;;;;;1.67;1.57;;;;;;;21.61;45.81;100991.92;3374770;83;21020;-77
2022/06/17 18:31:15;;;;;;;4.08;2.10;;;;;;;21.43;46.58;100995.85;3377818;83;21048;-77
2022/06/17 18:36:12;;;;;;;6.15;2.70;;;;;;;21.20;46.84;101006.95;3353030;82;21482;-77
2022/06/17 18:41:00;;;;;;;1.77;1.62;;;;;;;20.98;47.62;101005.25;3353717;83;20985;-77
2022/06/17 18:45:52;;;;;;;4.65;1.72;;;;;;;20.76;47.59;101010.09;3361595;82;21020;-77
2022/06/17 18:50:45;;;;;;;1.77;1.60;;;;;;;20.52;47.74;101012.30;3398380;81;22186;-77
2022/06/17 18:55:37;;;;;;;1.70;1.60;;;;;;;20.32;48.75;101017.12;3432826;82;20993;-77
2022/06/17 19:00:30;;;;;;;2.42;1.67;;;;;;;20.12;49.13;101024.05;3350382;83;21215;-78
2022/06/17 19:05:30;;;;;;;1.75;1.50;;;;;;;19.94;49.08;101027.88;3356385;83;20992;-78
2022/06/17 19:20:49;;;;;;;1.98;1.87;;;;;;;19.50;51.12;101033.41;3403831;82;20995;-81
2022/06/17 19:25:37;;;;;;;2.58;2.37;;;;;;;19.32;51.18;101032.77;3358960;82;21004;-81
2022/06/17 19:30:29;;;;;;;3.00;2.72;;;;;;;19.12;51.65;101034.38;3350335;83;20987;-82
2022/06/17 19:35:26;;;;;;;6.78;4.53;;;;;;;18.93;51.84;101035.50;3383037;83;20908;-81
2022/06/17 19:40:23;;;;;;;4.33;3.58;;;;;;;18.75;52.27;101041.38;3392285;83;21552;-81
2022/06/17 19:45:15;;;;;;;7.22;5.70;;;;;;;18.59;52.81;101041.98;3427038;83;20978;-81
2022/06/17 19:50:12;;;;;;;7.90;5.55;;;;;;;18.38;53.23;101044.84;3342097;83;21769;-81
2022/06/17 19:55:09;;;;;;;8.15;6.35;;;;;;;18.22;53.67;101047.62;3380446;81;20960;-81
2022/06/17 20:00:00;;;;;;;9.25;7.70;;;;;;;18.06;54.11;101048.65;3433050;83;20973;-81
2022/06/17 20:04:53;;;;;;;10.55;7.87;;;;;;;17.89;54.66;101054.92;3336473;82;20909;-80
2022/06/17 20:09:44;;;;;;;8.55;7.03;;;;;;;17.70;54.69;101056.78;3381518;83;21406;-80
2022/06/17 20:14:38;;;;;;;10.47;7.97;;;;;;;17.46;55.08;101059.14;3381113;83;21042;-80
2022/06/17 20:19:29;;;;;;;8.10;7.30;;;;;;;17.33;55.78;101054.81;3374439;83;20979;-80
2022/06/17 20:24:21;;;;;;;9.60;7.83;;;;;;;17.27;56.09;101062.30;3315634;83;22001;-80
2022/06/17 20:29:23;;;;;;;10.95;8.03;;;;;;;17.17;56.43;101062.35;3316007;83;21011;-80
2022/06/17 20:34:14;;;;;;;7.80;5.97;;;;;;;16.98;56.75;101060.27;3368831;83;20957;-80
2022/06/17 20:39:11;;;;;;;7.15;6.20;;;;;;;16.80;57.03;101062.04;3392761;82;21002;-80
2022/06/17 20:44:15;;;;;;;9.43;5.85;;;;;;;16.65;57.48;101066.91;3379754;82;20947;-80
2022/06/17 20:49:58;;;;;;;8.48;5.80;;;;;;;16.47;58.29;101066.51;3370594;83;21051;-81
2022/06/17 20:54:18;;;;;;;5.40;4.72;;;;;;;16.36;58.75;101070.47;3420144;83;21049;-81
2022/06/17 20:59:09;;;;;;;5.75;4.45;;;;;;;16.25;58.94;101068.27;3403504;82;21478;-81
2022/06/17 21:04:00;;;;;;;8.33;4.90;;;;;;;16.12;59.22;101066.55;3375341;83;21831;-81
2022/06/17 21:08:53;;;;;;;4.50;3.98;;;;;;;16.01;59.41;101063.47;3394407;82;21447;-81
2022/06/17 21:13:46;;;;;;;6.78;5.12;;;;;;;15.90;59.56;101063.92;3391076;80;20972;-81
2022/06/17 21:18:42;;;;;;;6.62;4.55;;;;;;;15.78;59.71;101064.77;3429617;80;20976;-81
2022/06/17 21:23:36;;;;;;;4.87;4.42;;;;;;;15.66;60.18;101063.84;3398741;83;20945;-81
2022/06/17 21:28:29;;;;;;;4.12;3.72;;;;;;;15.55;60.50;101068.63;3397107;83;21079;-80
2022/06/17 21:33:23;;;;;;;4.72;4.33;;;;;;;15.47;60.91;101080.86;3377853;82;20975;-81
2022/06/17 21:38:32;;;;;;;4.12;3.83;;;;;;;15.34;60.98;101084.30;3422048;80;21498;-80
2022/06/17 21:43:38;;;;;;;4.03;3.62;;;;;;;15.25;61.50;101087.34;3382030;82;21315;-80
2022/06/17 21:48:26;;;;;;;4.30;3.92;;;;;;;15.18;61.91;101084.23;3405029;81;20984;-81
2022/06/17 21:53:28;;;;;;;4.50;4.10;;;;;;;15.10;62.15;101087.27;3361468;82;20909;-81
2022/06/17 21:58:24;;;;;;;5.50;4.67;;;;;;;14.99;62.48;101088.53;3405375;81;21708;-81
2022/06/17 22:03:18;;;;;;;8.53;4.85;;;;;;;14.89;62.67;101091.97;3388110;81;20908;-81
2022/06/17 22:08:14;;;;;;;4.60;4.20;;;;;;;14.81;63.11;101086.70;3383081;81;21006;-81
2022/06/17 22:13:07;;;;;;;5.97;4.15;;;;;;;14.76;63.10;101094.95;3366112;82;20991;-81
2022/06/17 22:18:01;;;;;;;5.12;4.60;;;;;;;14.64;63.32;101102.73;3363918;82;22120;-81
2022/06/17 22:22:52;;;;;;;7.80;4.50;;;;;;;14.60;63.52;101101.83;3377597;82;21010;-81
2022/06/17 22:27:47;;;;;;;8.08;4.10;;;;;;;14.55;63.80;101111.80;3366571;83;21016;-80
2022/06/17 22:32:40;;;;;;;5.70;4.40;;;;;;;14.48;63.93;101105.64;3354940;82;20975;-81
2022/06/17 22:37:34;;;;;;;5.47;4.55;;;;;;;14.42;64.08;101101.24;3352033;83;21726;-81
2022/06/17 22:42:26;;;;;;;5.67;4.10;;;;;;;14.32;64.00;101109.88;3353345;83;21278;-81
2022/06/17 22:47:25;;;;;;;6.55;4.85;;;;;;;14.21;64.30;101103.69;3352150;83;21517;-80
2022/06/17 22:52:18;;;;;;;4.95;4.33;;;;;;;14.11;64.45;101102.72;3333151;83;20999;-80
2022/06/17 22:57:17;;;;;;;4.80;3.90;;;;;;;13.99;64.82;101107.43;3374156;83;20996;-80
2022/06/17 23:02:19;;;;;;;5.60;4.47;;;;;;;13.97;64.96;101100.01;3396684;83;20932;-80
2022/06/17 23:07:16;;;;;;;9.13;4.50;;;;;;;13.97;65.08;101089.55;3393498;82;21317;-80
2022/06/17 23:12:11;;;;;;;5.00;4.30;;;;;;;13.94;65.10;101079.06;3414933;83;20968;-80
2022/06/17 23:17:03;;;;;;;5.00;3.77;;;;;;;13.84;65.17;101081.14;3409246;83;20950;-81
2022/06/17 23:21:54;;;;;;;4.15;3.60;;;;;;;13.73;65.24;101086.27;3327869;83;21156;-80
2022/06/17 23:26:46;;;;;;;5.05;3.47;;;;;;;13.58;65.32;101076.54;3377061;83;21460;-80
2022/06/17 23:31:42;;;;;;;4.80;4.12;;;;;;;13.48;65.57;101073.38;3375780;83;21242;-80
2022/06/17 23:36:35;;;;;;;5.50;4.17;;;;;;;13.44;65.90;101074.22;3344130;83;20958;-80
2022/06/17 23:41:26;;;;;;;5.08;4.65;;;;;;;13.39;65.82;101071.53;3358476;83;20970;-79